createdAt,value
2023-05-14T00:01:43.614Z,3.47
2023-05-14T00:04:12.049Z,5.33
2023-05-14T00:06:40.497Z,4.67
2023-05-14T00:09:09.018Z,3.97
2023-05-14T00:11:37.427Z,4.10
2023-05-14T00:14:05.889Z,3.23
2023-05-14T00:16:34.378Z,3.80
2023-05-14T00:19:04.286Z,3.50
2023-05-14T00:21:32.921Z,3.67
2023-05-14T00:24:01.390Z,3.60
2023-05-14T00:26:29.818Z,3.33
2023-05-14T00:28:58.236Z,4.40
2023-05-14T00:31:26.711Z,4.43
2023-05-14T00:33:55.188Z,3.77
2023-05-14T00:36:25.198Z,3.57
2023-05-14T00:38:53.662Z,4.43
2023-05-14T00:41:22.323Z,3.37
2023-05-14T00:43:50.765Z,5.23
2023-05-14T00:46:19.507Z,3.97
2023-05-14T00:48:48.374Z,3.63
2023-05-14T00:51:17.392Z,4.13
2023-05-14T00:53:47.406Z,4.37
2023-05-14T00:56:16.203Z,4.03
2023-05-14T00:58:44.652Z,3.20
2023-05-14T01:01:15.346Z,5.17
2023-05-14T01:03:44.278Z,4.40
2023-05-14T01:06:17.413Z,4.17
2023-05-14T01:08:51.915Z,4.07
2023-05-14T01:11:23.520Z,4.53
2023-05-14T01:13:56.532Z,3.20
2023-05-14T01:16:28.221Z,4.83
2023-05-14T01:18:58.695Z,2.90
2023-05-14T01:21:35.312Z,3.83
2023-05-14T01:24:03.744Z,4.40
2023-05-14T01:26:32.509Z,2.80
2023-05-14T01:29:03.897Z,3.60
2023-05-14T01:31:33.497Z,3.37
2023-05-14T01:34:02.862Z,3.30
2023-05-14T01:36:33.592Z,2.83
2023-05-14T01:39:02.494Z,5.03
2023-05-14T01:41:31.551Z,2.70
2023-05-14T01:44:00.117Z,3.80
2023-05-14T01:46:28.698Z,3.60
2023-05-14T01:48:57.172Z,5.93
2023-05-14T01:51:25.609Z,5.40
2023-05-14T01:53:55.371Z,3.27
2023-05-14T01:56:25.564Z,3.70
2023-05-14T01:58:55.620Z,3.50
2023-05-14T02:01:26.103Z,4.83
2023-05-14T02:03:54.641Z,4.53
2023-05-14T02:06:23.135Z,3.17
2023-05-14T02:08:51.524Z,3.93
2023-05-14T02:11:22.011Z,3.67
2023-05-14T02:13:50.480Z,2.93
2023-05-14T02:16:19.323Z,3.27
2023-05-14T02:18:47.835Z,2.87
2023-05-14T02:21:16.589Z,2.97
2023-05-14T02:23:44.979Z,2.80
2023-05-14T02:26:13.436Z,3.37
2023-05-14T02:28:43.274Z,3.07
2023-05-14T02:31:11.726Z,3.60
2023-05-14T02:33:40.313Z,4.70
2023-05-14T02:36:09.041Z,2.40
2023-05-14T02:38:37.505Z,3.83
2023-05-14T02:41:05.935Z,3.17
2023-05-14T02:43:34.389Z,2.40
2023-05-14T02:46:04.218Z,3.97
2023-05-14T02:48:32.596Z,2.17
2023-05-14T02:51:01.285Z,3.90
2023-05-14T02:53:29.703Z,2.77
2023-05-14T02:55:58.092Z,3.27
2023-05-14T02:58:28.469Z,2.73
2023-05-14T03:00:57.173Z,3.73
2023-05-14T03:03:27.538Z,3.77
2023-05-14T03:05:56.447Z,3.63
2023-05-14T03:08:25.015Z,2.40
2023-05-14T03:10:53.410Z,5.17
2023-05-14T03:13:21.840Z,3.63
2023-05-14T03:15:54.803Z,3.87
2023-05-14T03:18:23.368Z,3.90
2023-05-14T03:20:53.151Z,4.00
2023-05-14T03:23:21.581Z,3.10
2023-05-14T03:25:50.040Z,2.97
2023-05-14T03:28:18.456Z,3.43
2023-05-14T03:30:46.907Z,3.77
2023-05-14T03:33:15.778Z,3.77
2023-05-14T03:35:44.283Z,4.47
2023-05-14T03:38:14.092Z,3.77
2023-05-14T03:40:42.553Z,3.50
2023-05-14T03:43:11.357Z,3.10
2023-05-14T03:45:40.153Z,3.53
2023-05-14T03:48:08.778Z,4.57
2023-05-14T03:50:37.250Z,4.40
2023-05-14T03:53:05.718Z,3.13
2023-05-14T03:55:36.959Z,4.40
2023-05-14T03:58:07.398Z,3.43
2023-05-14T04:00:35.864Z,3.40
2023-05-14T04:03:04.429Z,4.13
2023-05-14T04:05:32.980Z,4.03
2023-05-14T04:08:01.698Z,4.33
2023-05-14T04:10:30.155Z,4.40
2023-05-14T04:13:00.010Z,4.90
2023-05-14T04:15:28.546Z,6.33
2023-05-14T04:17:57.034Z,5.87
2023-05-14T04:20:25.864Z,4.23
2023-05-14T04:22:54.708Z,4.63
2023-05-14T04:25:24.152Z,5.90
2023-05-14T04:27:52.611Z,7.23
2023-05-14T04:30:22.896Z,5.30
2023-05-14T04:32:51.728Z,3.97
2023-05-14T04:35:22.122Z,5.90
2023-05-14T04:37:52.560Z,8.17
2023-05-14T04:40:21.075Z,5.80
2023-05-14T04:42:49.616Z,4.13
2023-05-14T04:45:18.091Z,5.07
2023-05-14T04:47:48.079Z,5.27
2023-05-14T04:50:16.712Z,5.03
2023-05-14T04:52:45.114Z,6.77
2023-05-14T04:55:13.586Z,6.47
2023-05-14T04:57:42.014Z,5.47
2023-05-14T05:00:11.277Z,6.20
2023-05-14T05:02:39.776Z,6.57
2023-05-14T05:05:09.964Z,5.90
2023-05-14T05:07:38.340Z,5.80
2023-05-14T05:10:07.098Z,5.97
2023-05-14T05:12:35.468Z,5.70
2023-05-14T05:15:03.922Z,6.20
2023-05-14T05:17:32.383Z,4.70
2023-05-14T05:20:00.835Z,5.13
2023-05-14T05:22:31.033Z,5.47
2023-05-14T05:24:59.924Z,6.33
2023-05-14T05:27:28.451Z,5.17
2023-05-14T05:29:57.525Z,4.97
2023-05-14T05:32:26.147Z,7.70
2023-05-14T05:34:54.717Z,6.10
2023-05-14T05:37:23.140Z,5.00
2023-05-14T05:39:53.998Z,5.50
2023-05-14T05:42:22.536Z,4.97
2023-05-14T05:44:50.951Z,5.13
2023-05-14T05:47:19.459Z,5.17
2023-05-14T05:49:47.952Z,5.83
2023-05-14T05:52:16.426Z,5.47
2023-05-14T05:54:44.890Z,5.87
2023-05-14T05:57:14.748Z,5.50
2023-05-14T05:59:43.177Z,5.27
2023-05-14T06:02:11.648Z,7.10
2023-05-14T06:04:40.147Z,4.83
2023-05-14T06:07:08.535Z,5.53
2023-05-14T06:09:36.975Z,4.07
2023-05-14T06:12:05.642Z,4.40
2023-05-14T06:14:35.441Z,4.53
2023-05-14T06:17:03.876Z,4.97
2023-05-14T06:19:32.335Z,9.53
2023-05-14T06:22:00.849Z,4.90
2023-05-14T06:24:29.259Z,3.50
2023-05-14T06:26:57.677Z,3.10
2023-05-14T06:29:26.135Z,4.07
2023-05-14T06:31:56.000Z,4.13
2023-05-14T06:34:24.644Z,3.17
2023-05-14T06:36:53.032Z,3.27
2023-05-14T06:39:21.454Z,3.77
2023-05-14T06:41:49.868Z,3.60
2023-05-14T06:44:18.297Z,4.07
2023-05-14T06:46:46.709Z,5.13
2023-05-14T06:49:16.761Z,5.97
2023-05-14T06:51:45.745Z,5.03
2023-05-14T06:54:14.207Z,5.13
2023-05-14T06:56:42.612Z,5.70
2023-05-14T06:59:11.049Z,5.30
2023-05-14T07:01:39.524Z,5.37
2023-05-14T07:04:08.103Z,4.50
2023-05-14T07:06:37.941Z,5.47
2023-05-14T07:09:06.890Z,4.47
2023-05-14T07:11:35.380Z,3.20
2023-05-14T07:14:03.813Z,3.60
2023-05-14T07:16:32.315Z,4.20
2023-05-14T07:19:00.828Z,4.43
2023-05-14T07:21:29.257Z,4.37
2023-05-14T07:23:59.089Z,4.03
2023-05-14T07:26:27.492Z,4.00
2023-05-14T07:28:56.041Z,4.17
2023-05-14T07:31:24.507Z,4.80
2023-05-14T07:33:53.149Z,4.50
2023-05-14T07:36:21.558Z,3.58
2023-05-14T07:38:50.009Z,3.15
2023-05-14T07:41:19.853Z,4.05
2023-05-14T07:43:48.250Z,3.55
2023-05-14T07:46:16.730Z,3.42
2023-05-14T07:48:45.192Z,4.60
2023-05-14T07:51:13.633Z,2.97
2023-05-14T07:53:42.083Z,3.67
2023-05-14T07:56:10.564Z,3.10
2023-05-14T07:58:41.139Z,3.75
2023-05-14T08:01:09.584Z,3.30
2023-05-14T08:03:38.122Z,4.10
2023-05-14T08:06:06.900Z,3.67
2023-05-14T08:08:35.405Z,5.43
2023-05-14T08:11:04.079Z,3.42
2023-05-14T08:13:32.566Z,3.10
2023-05-14T08:16:02.875Z,3.17
2023-05-14T08:18:31.376Z,3.92
2023-05-14T08:20:59.863Z,3.60
2023-05-14T08:23:28.593Z,3.95
2023-05-14T08:25:56.998Z,4.13
2023-05-14T08:28:25.442Z,3.00
2023-05-14T08:30:53.964Z,2.50
2023-05-14T08:33:24.668Z,2.33
2023-05-14T08:35:55.039Z,3.75
2023-05-14T08:38:23.500Z,2.53
2023-05-14T08:40:56.032Z,3.58
2023-05-14T08:43:27.074Z,3.60
2023-05-14T08:45:59.178Z,3.33
2023-05-14T08:48:31.132Z,2.92
2023-05-14T08:50:59.816Z,3.20
2023-05-14T08:53:28.557Z,2.65
2023-05-14T08:55:57.020Z,2.72
2023-05-14T08:58:28.757Z,1.75
2023-05-14T09:00:57.983Z,2.70
2023-05-14T09:03:26.602Z,2.42
2023-05-14T09:05:58.678Z,3.28
2023-05-14T09:08:28.595Z,2.13
2023-05-14T09:10:57.014Z,2.47
2023-05-14T09:13:28.118Z,2.38
2023-05-14T09:15:57.080Z,2.13
2023-05-14T09:18:25.679Z,1.88
2023-05-14T09:20:54.290Z,2.28
2023-05-14T09:23:24.092Z,2.72
2023-05-14T09:25:52.686Z,3.55
2023-05-14T09:28:21.265Z,2.60
2023-05-14T09:30:52.761Z,2.55
2023-05-14T09:33:28.365Z,3.80
2023-05-14T09:35:58.421Z,2.08
2023-05-14T09:38:31.856Z,1.80
2023-05-14T09:41:00.792Z,1.90
2023-05-14T09:43:29.248Z,2.45
2023-05-14T09:45:57.667Z,3.03
2023-05-14T09:48:26.903Z,2.00
2023-05-14T09:50:55.359Z,3.65
2023-05-14T09:53:23.822Z,2.00
2023-05-14T09:55:53.662Z,2.67
2023-05-14T09:58:22.156Z,2.42
2023-05-14T10:00:51.041Z,4.63
2023-05-14T10:03:20.489Z,1.73
2023-05-14T10:05:51.578Z,2.63
2023-05-14T10:08:23.992Z,2.20
2023-05-14T10:10:55.585Z,2.17
2023-05-14T10:13:25.874Z,2.65
2023-05-14T10:15:57.905Z,2.15
2023-05-14T10:18:27.157Z,2.13
2023-05-14T10:20:59.296Z,2.07
2023-05-14T10:23:27.731Z,3.37
2023-05-14T10:25:57.770Z,2.25
2023-05-14T10:28:26.293Z,2.15
2023-05-14T10:30:56.066Z,2.30
2023-05-14T10:33:24.842Z,5.10
2023-05-14T10:35:54.263Z,4.27
2023-05-14T10:38:24.563Z,2.73
2023-05-14T10:40:54.268Z,1.83
2023-05-14T10:43:26.491Z,1.93
2023-05-14T10:45:55.409Z,2.17
2023-05-14T10:48:24.121Z,2.33
2023-05-14T10:50:53.061Z,2.17
2023-05-14T10:53:22.387Z,1.90
2023-05-14T10:55:50.948Z,2.27
2023-05-14T10:58:19.895Z,2.27
2023-05-14T11:00:50.937Z,2.20
2023-05-14T11:03:20.245Z,1.90
2023-05-14T11:05:48.847Z,4.90
2023-05-14T11:08:17.436Z,2.47
2023-05-14T11:10:47.127Z,1.77
2023-05-14T11:13:16.761Z,1.80
2023-05-14T11:15:48.127Z,2.10
2023-05-14T11:18:27.880Z,1.80
2023-05-14T11:20:56.386Z,1.87
2023-05-14T11:23:25.583Z,2.07
2023-05-14T11:25:54.863Z,1.97
2023-05-14T11:28:23.580Z,2.03
2023-05-14T11:30:52.378Z,3.73
2023-05-14T11:33:22.643Z,2.70
2023-05-14T11:35:52.044Z,2.00
2023-05-14T11:38:21.242Z,2.03
2023-05-14T11:40:54.270Z,9.10
2023-05-14T11:43:23.760Z,4.53
2023-05-14T11:45:52.750Z,3.87
2023-05-14T11:48:23.297Z,5.53
2023-05-14T11:50:52.570Z,4.23
2023-05-14T11:53:21.188Z,3.73
2023-05-14T11:55:49.743Z,2.80
2023-05-14T11:58:18.925Z,2.40
2023-05-14T12:00:47.505Z,2.57
2023-05-14T12:03:16.244Z,5.23
2023-05-14T12:05:58.124Z,3.13
2023-05-14T12:08:28.320Z,3.27
2023-05-14T12:10:57.217Z,3.57
2023-05-14T12:13:27.525Z,2.73
2023-05-14T12:15:56.852Z,2.30
2023-05-14T12:18:26.477Z,4.18
2023-05-14T12:20:55.016Z,3.63
2023-05-14T12:23:28.490Z,3.23
2023-05-14T12:25:56.906Z,3.50
2023-05-14T12:28:25.436Z,4.25
2023-05-14T12:30:58.232Z,1.55
2023-05-14T12:33:26.945Z,3.60
2023-05-14T12:35:58.940Z,3.15
2023-05-14T12:38:30.612Z,3.28
2023-05-14T12:40:58.994Z,2.50
2023-05-14T12:43:31.509Z,1.67
2023-05-14T12:45:59.980Z,5.15
2023-05-14T12:48:28.399Z,3.13
2023-05-14T12:50:56.892Z,1.33
2023-05-14T12:53:25.309Z,1.10
2023-05-14T12:55:56.418Z,1.55
2023-05-14T12:58:24.913Z,1.60
2023-05-14T13:00:53.373Z,2.35
2023-05-14T13:03:22.237Z,2.25
2023-05-14T13:05:50.958Z,1.70
2023-05-14T13:08:21.542Z,1.45
2023-05-14T13:10:49.984Z,2.72
2023-05-14T13:13:19.813Z,2.95
2023-05-14T13:15:48.272Z,1.63
2023-05-14T13:18:16.962Z,1.95
2023-05-14T13:20:45.431Z,1.40
2023-05-14T13:23:13.829Z,1.40
2023-05-14T13:25:42.294Z,2.47
2023-05-14T13:28:10.789Z,4.05
2023-05-14T13:30:40.656Z,1.30
2023-05-14T13:33:09.269Z,1.80
2023-05-14T13:35:38.108Z,1.33
2023-05-14T13:38:07.809Z,1.95
2023-05-14T13:40:36.196Z,1.52
2023-05-14T13:43:04.686Z,1.70
2023-05-14T13:45:33.111Z,1.90
2023-05-14T13:48:02.945Z,1.52
2023-05-14T13:50:31.391Z,1.20
2023-05-14T13:52:59.814Z,2.22
2023-05-14T13:55:28.224Z,1.55
2023-05-14T13:57:56.680Z,1.67
2023-05-14T14:00:25.989Z,2.85
2023-05-14T14:02:54.468Z,2.45
2023-05-14T14:05:28.374Z,3.40
2023-05-14T14:08:01.144Z,1.60
2023-05-14T14:10:42.534Z,4.07
2023-05-14T14:13:11.097Z,1.60
2023-05-14T14:15:39.607Z,1.40
2023-05-14T14:18:08.086Z,1.35
2023-05-14T14:20:37.873Z,1.40
2023-05-14T14:23:06.493Z,1.40
2023-05-14T14:25:34.926Z,1.33
2023-05-14T14:28:03.335Z,1.30
2023-05-14T14:30:31.765Z,2.03
2023-05-14T14:33:01.319Z,1.20
2023-05-14T14:35:30.693Z,1.20
2023-05-14T14:38:00.481Z,1.27
2023-05-14T14:40:29.803Z,1.38
2023-05-14T14:42:58.316Z,1.20
2023-05-14T14:45:26.746Z,1.83
2023-05-14T14:48:15.302Z,1.42
2023-05-14T14:50:43.718Z,1.05
2023-05-14T14:53:13.473Z,1.10
2023-05-14T14:55:41.992Z,1.17
2023-05-14T14:58:10.434Z,1.00
2023-05-14T15:00:40.227Z,1.08
2023-05-14T15:03:09.306Z,0.80
2023-05-14T15:05:37.807Z,1.33
2023-05-14T15:08:06.646Z,1.20
2023-05-14T15:10:38.185Z,1.02
2023-05-14T15:13:07.535Z,1.33
2023-05-14T15:15:36.525Z,1.80
2023-05-14T15:18:05.354Z,0.70
2023-05-14T15:20:33.902Z,1.45
2023-05-14T15:23:02.336Z,0.90
2023-05-14T15:25:30.799Z,1.23
2023-05-14T15:28:00.613Z,1.00
2023-05-14T15:30:29.077Z,1.30
2023-05-14T15:32:57.567Z,1.77
2023-05-14T15:35:26.192Z,0.85
2023-05-14T15:37:56.962Z,1.50
2023-05-14T15:40:25.659Z,1.35
2023-05-14T15:42:54.484Z,1.00
2023-05-14T15:45:24.420Z,1.02
2023-05-14T15:47:52.912Z,1.17
2023-05-14T15:50:21.468Z,1.20
2023-05-14T15:52:49.977Z,1.55
2023-05-14T15:55:18.529Z,0.70
2023-05-14T15:57:46.944Z,0.98
2023-05-14T16:00:16.440Z,1.55
2023-05-14T16:02:46.360Z,2.38
2023-05-14T16:05:15.496Z,1.77
2023-05-14T16:07:44.174Z,1.85
2023-05-14T16:10:12.869Z,1.20
2023-05-14T16:12:41.344Z,1.40
2023-05-14T16:15:10.195Z,0.90
2023-05-14T16:17:38.723Z,0.80
2023-05-14T16:20:09.633Z,2.88
2023-05-14T16:22:38.041Z,1.95
2023-05-14T16:25:06.837Z,1.65
2023-05-14T16:27:35.430Z,1.73
2023-05-14T16:30:04.488Z,1.15
2023-05-14T16:32:33.801Z,0.90
2023-05-14T16:35:02.812Z,1.20
2023-05-14T16:37:32.915Z,1.33
2023-05-14T16:40:01.399Z,1.23
2023-05-14T16:42:30.880Z,1.50
2023-05-14T16:44:59.284Z,1.15
2023-05-14T16:47:27.726Z,1.20
2023-05-14T16:49:56.158Z,2.63
2023-05-14T16:52:24.597Z,1.00
2023-05-14T16:54:54.463Z,0.73
2023-05-14T16:57:22.903Z,2.95
2023-05-14T16:59:51.350Z,1.30
2023-05-14T17:02:19.823Z,0.90
2023-05-14T17:04:48.311Z,1.77
2023-05-14T17:07:16.750Z,1.40
2023-05-14T17:09:45.201Z,1.17
2023-05-14T17:12:15.014Z,0.93
2023-05-14T17:14:43.431Z,0.70
2023-05-14T17:17:11.851Z,1.05
2023-05-14T17:19:40.240Z,2.83
2023-05-14T17:22:08.674Z,0.93
2023-05-14T17:24:39.088Z,1.00
2023-05-14T17:27:08.048Z,1.13
2023-05-14T17:29:37.846Z,1.13
2023-05-14T17:32:06.634Z,1.20
2023-05-14T17:34:35.097Z,0.95
2023-05-14T17:37:03.530Z,0.90
2023-05-14T17:39:31.956Z,1.00
2023-05-14T17:42:00.435Z,2.17
2023-05-14T17:44:28.848Z,1.27
2023-05-14T17:47:00.396Z,1.20
2023-05-14T17:49:29.012Z,1.10
2023-05-14T17:51:57.423Z,1.17
2023-05-14T17:54:25.910Z,1.00
2023-05-14T17:56:54.521Z,1.13
2023-05-14T17:59:24.279Z,1.97
2023-05-14T18:01:52.935Z,2.07
2023-05-14T18:04:22.737Z,1.17
2023-05-14T18:06:51.148Z,1.17
2023-05-14T18:09:19.699Z,2.10
2023-05-14T18:11:48.106Z,1.53
2023-05-14T18:14:17.577Z,1.10
2023-05-14T18:16:46.046Z,1.30
2023-05-14T18:19:14.487Z,1.10
2023-05-14T18:21:46.612Z,1.27
2023-05-14T18:24:15.066Z,2.60
2023-05-14T18:26:43.463Z,1.40
2023-05-14T18:29:11.888Z,1.50
2023-05-14T18:31:40.342Z,1.10
2023-05-14T18:34:08.774Z,1.40
2023-05-14T18:36:37.234Z,2.47
2023-05-14T18:39:07.150Z,1.30
2023-05-14T18:41:35.681Z,1.40
2023-05-14T18:44:04.276Z,2.90
2023-05-14T18:46:32.743Z,2.37
2023-05-14T18:49:01.616Z,9.87
2023-05-14T18:51:30.036Z,13.53
2023-05-14T18:53:58.567Z,10.40
2023-05-14T18:56:28.381Z,11.20
2023-05-14T18:58:56.813Z,11.23
2023-05-14T19:01:25.627Z,9.50
2023-05-14T19:03:54.450Z,17.30
2023-05-14T19:06:22.989Z,19.83
2023-05-14T19:08:51.798Z,14.27
2023-05-14T19:11:20.231Z,10.97
2023-05-14T19:13:50.046Z,9.07
2023-05-14T19:16:18.585Z,6.67
2023-05-14T19:18:47.123Z,7.27
2023-05-14T19:21:16.017Z,6.53
2023-05-14T19:23:44.452Z,3.60
2023-05-14T19:26:12.882Z,3.50
2023-05-14T19:28:41.687Z,2.97
2023-05-14T19:31:11.572Z,3.30
2023-05-14T19:33:40.003Z,3.47
2023-05-14T19:36:08.946Z,2.67
2023-05-14T19:38:37.565Z,3.10
2023-05-14T19:41:06.089Z,2.70
2023-05-14T19:43:34.603Z,2.43
2023-05-14T19:46:03.885Z,2.17
2023-05-14T19:48:34.357Z,2.30
2023-05-14T19:51:02.784Z,3.47
2023-05-14T19:53:31.197Z,1.90
2023-05-14T19:55:59.641Z,2.40
2023-05-14T19:58:28.298Z,2.17
2023-05-14T20:00:56.813Z,3.00
2023-05-14T20:03:26.760Z,2.10
2023-05-14T20:05:56.968Z,2.20
2023-05-14T20:08:25.476Z,2.07
2023-05-14T20:10:53.899Z,2.13
2023-05-14T20:13:24.416Z,1.93
2023-05-14T20:15:55.267Z,2.00
2023-05-14T20:18:23.777Z,1.87
2023-05-14T20:20:52.289Z,1.90
2023-05-14T20:23:22.133Z,2.13
2023-05-14T20:25:50.567Z,2.53
2023-05-14T20:28:18.986Z,2.20
2023-05-14T20:30:47.492Z,2.10
2023-05-14T20:33:16.020Z,2.20
2023-05-14T20:35:44.463Z,2.50
2023-05-14T20:38:13.458Z,2.30
2023-05-14T20:40:44.465Z,2.63
2023-05-14T20:43:13.202Z,2.40
2023-05-14T20:45:41.707Z,2.00
2023-05-14T20:48:14.987Z,2.27
2023-05-14T20:50:43.528Z,2.57
2023-05-14T20:53:11.954Z,4.07
2023-05-14T20:55:41.271Z,2.53
2023-05-14T20:58:11.173Z,1.90
2023-05-14T21:00:39.608Z,3.27
2023-05-14T21:03:08.327Z,2.20
2023-05-14T21:05:36.840Z,3.33
2023-05-14T21:08:05.330Z,2.20
2023-05-14T21:10:33.731Z,2.40
2023-05-14T21:13:02.191Z,2.37
2023-05-14T21:15:32.689Z,2.13
2023-05-14T21:18:01.211Z,3.37
2023-05-14T21:20:29.645Z,4.47
2023-05-14T21:22:58.039Z,4.67
2023-05-14T21:25:26.666Z,4.47
2023-05-14T21:27:55.594Z,5.33
2023-05-14T21:30:24.006Z,5.70
2023-05-14T21:32:53.819Z,4.83
2023-05-14T21:35:23.195Z,4.03
2023-05-14T21:37:51.878Z,4.63
2023-05-14T21:40:20.336Z,4.43
2023-05-14T21:42:48.755Z,4.07
2023-05-14T21:45:17.332Z,4.03
2023-05-14T21:47:45.809Z,4.77
2023-05-14T21:50:15.694Z,4.30
2023-05-14T21:52:44.084Z,4.27
2023-05-14T21:55:12.474Z,3.97
2023-05-14T21:57:40.924Z,4.03
2023-05-14T22:00:12.960Z,5.07
2023-05-14T22:02:41.421Z,4.90
2023-05-14T22:05:10.123Z,6.30
2023-05-14T22:07:39.899Z,4.57
2023-05-14T22:10:08.623Z,4.27
2023-05-14T22:12:37.040Z,3.27
2023-05-14T22:15:05.993Z,3.50
2023-05-14T22:17:35.174Z,5.00
2023-05-14T22:20:05.585Z,3.73
2023-05-14T22:22:33.988Z,5.33
2023-05-14T22:25:03.793Z,3.27
2023-05-14T22:27:32.263Z,4.00
2023-05-14T22:30:00.855Z,4.00
2023-05-14T22:32:29.423Z,2.90
2023-05-14T22:34:58.164Z,3.53
2023-05-14T22:37:26.587Z,3.17
2023-05-14T22:39:55.040Z,3.10
2023-05-14T22:42:24.860Z,1.90
2023-05-14T22:44:54.104Z,4.00
2023-05-14T22:47:22.580Z,2.50
2023-05-14T22:49:51.243Z,2.13
2023-05-14T22:52:19.922Z,4.93
2023-05-14T22:54:50.903Z,2.10
2023-05-14T22:57:19.395Z,2.77
2023-05-14T22:59:49.180Z,3.23
2023-05-14T23:02:17.612Z,2.40
2023-05-14T23:04:46.114Z,2.23
2023-05-14T23:07:14.535Z,3.30
2023-05-14T23:09:42.932Z,2.40
2023-05-14T23:12:11.625Z,3.43
2023-05-14T23:14:40.047Z,2.70
2023-05-14T23:17:09.872Z,2.13
2023-05-14T23:19:38.344Z,2.47
2023-05-14T23:22:07.029Z,3.30
2023-05-14T23:24:35.447Z,1.70
2023-05-14T23:27:04.395Z,2.10
2023-05-14T23:29:32.814Z,1.93
2023-05-14T23:32:01.293Z,2.13
2023-05-14T23:34:31.397Z,2.17
2023-05-14T23:36:59.825Z,2.13
2023-05-14T23:39:28.424Z,2.77
2023-05-14T23:41:56.893Z,2.37
2023-05-14T23:44:25.494Z,2.20
2023-05-14T23:46:53.934Z,2.30
2023-05-14T23:49:22.492Z,2.40
2023-05-14T23:51:52.293Z,2.83
2023-05-14T23:54:21.204Z,3.77
2023-05-14T23:56:49.859Z,3.43
2023-05-14T23:59:18.696Z,2.77
